Wetterdaten: Woche 07.11.22 - 13.11.22 (KW45)
Datum Zeit Temp. Aussen Temp. o. S. Temp +5cm Feuchte Auss Luftdruck Regen Sonnenschein Regendauer Solar Windben Empfang
07.11.2022 00:00 10,9 C 10,2 C 6,7 C 88 % 1009,6 hPa 0,0 l/m 0,00 h 0,00 h 0 W/m 22,5 km/h (4 Bft) 92,72 %
07.11.2022 01:00 11,0 C 10,3 C 6,8 C 89 % 1009,9 hPa 0,0 l/m 0,00 h 0,00 h 0 W/m 24,7 km/h (4 Bft) 88,84 %
07.11.2022 02:00 10,7 C 9,6 C 6,3 C 89 % 1010,0 hPa 0,0 l/m 0,00 h 0,00 h 0 W/m 17,4 km/h (3 Bft) 95,87 %
07.11.2022 03:00 10,6 C 10,0 C 6,7 C 91 % 1010,0 hPa 0,0 l/m 0,00 h 0,00 h 0 W/m 18,6 km/h (3 Bft) 92,47 %
07.11.2022 04:00 10,8 C 10,0 C 6,7 C 91 % 1010,2 hPa 0,0 l/m 0,00 h 0,00 h 0 W/m 20,7 km/h (4 Bft) 97,24 %
07.11.2022 05:00 10,9 C 10,0 C 6,7 C 90 % 1010,3 hPa 0,0 l/m 0,00 h 0,00 h 0 W/m 17,3 km/h (3 Bft) 96,52 %
07.11.2022 06:00 10,4 C 9,6 C 6,3 C 91 % 1010,3 hPa 0,0 l/m 0,00 h 0,00 h 0 W/m 12,3 km/h (3 Bft) 94,47 %
07.11.2022 07:00 11,3 C 10,9 C 7,3 C 89 % 1010,5 hPa 0,2 l/m 0,00 h 0,00 h 7 W/m 19,7 km/h (3 Bft) 97,08 %
07.11.2022 08:00 12,2 C 11,7 C 8,1 C 87 % 1010,9 hPa 0,0 l/m 0,00 h 0,00 h 32 W/m 26,2 km/h (4 Bft) 98,55 %
07.11.2022 09:00 13,0 C 12,5 C 8,9 C 86 % 1011,4 hPa 0,0 l/m 0,00 h 0,00 h 54 W/m 24,5 km/h (4 Bft) 96,26 %
07.11.2022 10:00 13,5 C 12,9 C 9,2 C 86 % 1011,8 hPa 0,0 l/m 0,00 h 0,00 h 73 W/m 27,9 km/h (4 Bft) 99,50 %
07.11.2022 11:00 13,3 C 13,0 C 9,4 C 90 % 1012,2 hPa 0,0 l/m 0,00 h 0,00 h 113 W/m 24,9 km/h (4 Bft) 96,84 %
07.11.2022 12:00 14,2 C 13,8 C 10,1 C 86 % 1012,1 hPa 0,0 l/m 0,00 h 0,00 h 106 W/m 25,8 km/h (4 Bft) 96,10 %
07.11.2022 13:00 14,8 C 14,5 C 10,6 C 82 % 1011,9 hPa 0,0 l/m 0,15 h 0,00 h 137 W/m 25,8 km/h (4 Bft) 98,77 %
07.11.2022 14:00 14,9 C 14,4 C 10,6 C 82 % 1011,9 hPa 0,0 l/m 0,00 h 0,00 h 74 W/m 25,8 km/h (4 Bft) 97,13 %
07.11.2022 15:00 14,9 C 14,4 C 10,6 C 82 % 1011,8 hPa 0,0 l/m 0,27 h 0,00 h 71 W/m 22,4 km/h (4 Bft) 96,48 %
07.11.2022 16:00 14,8 C 14,0 C 10,3 C 82 % 1011,8 hPa 0,0 l/m 0,00 h 0,00 h 24 W/m 21,5 km/h (4 Bft) 98,43 %
07.11.2022 17:00 14,6 C 13,9 C 10,0 C 83 % 1012,0 hPa 0,0 l/m 0,00 h 0,00 h 0 W/m 21,9 km/h (4 Bft) 94,84 %
07.11.2022 18:00 14,4 C 13,7 C 9,9 C 83 % 1012,2 hPa 0,0 l/m 0,00 h 0,00 h 0 W/m 17,8 km/h (3 Bft) 98,71 %
07.11.2022 19:00 14,3 C 13,2 C 9,4 C 84 % 1012,3 hPa 0,0 l/m 0,00 h 0,00 h 0 W/m 9,1 km/h (2 Bft) 97,96 %
07.11.2022 20:00 14,1 C 13,2 C 9,4 C 85 % 1012,4 hPa 0,0 l/m 0,00 h 0,00 h 0 W/m 10,6 km/h (2 Bft) 94,72 %
07.11.2022 21:00 13,6 C 12,5 C 9,0 C 86 % 1012,5 hPa 0,0 l/m 0,00 h 0,00 h 0 W/m 9,2 km/h (2 Bft) 96,46 %
07.11.2022 22:00 12,9 C 12,0 C 8,5 C 88 % 1012,4 hPa 0,0 l/m 0,00 h 0,00 h 0 W/m 7,9 km/h (2 Bft) 98,68 %
07.11.2022 23:00 12,7 C 11,8 C 8,4 C 88 % 1012,1 hPa 0,0 l/m 0,00 h 0,00 h 0 W/m 9,4 km/h (2 Bft) 94,61 %
08.11.2022 00:00 11,8 C 10,7 C 7,5 C 90 % 1011,8 hPa 0,0 l/m 0,00 h 0,00 h 0 W/m 8,0 km/h (2 Bft) 98,54 %
08.11.2022 01:00 11,7 C 11,2 C 7,8 C 91 % 1011,7 hPa 0,0 l/m 0,00 h 0,00 h 0 W/m 9,5 km/h (2 Bft) 96,60 %
08.11.2022 02:00 11,9 C 11,0 C 7,7 C 90 % 1011,3 hPa 0,0 l/m 0,00 h 0,00 h 0 W/m 8,8 km/h (2 Bft) 96,19 %
08.11.2022 03:00 11,2 C 10,3 C 7,2 C 91 % 1011,0 hPa 0,0 l/m 0,00 h 0,00 h 0 W/m 8,9 km/h (2 Bft) 98,27 %
08.11.2022 04:00 11,1 C 10,5 C 7,2 C 92 % 1010,1 hPa 0,0 l/m 0,00 h 0,00 h 0 W/m 15,8 km/h (3 Bft) 97,59 %
08.11.2022 05:00 11,1 C 10,5 C 7,2 C 92 % 1009,4 hPa 0,0 l/m 0,00 h 0,00 h 0 W/m 18,2 km/h (3 Bft) 95,12 %
08.11.2022 06:00 11,1 C 10,5 C 7,2 C 91 % 1008,4 hPa 0,0 l/m 0,00 h 0,00 h 0 W/m 21,5 km/h (4 Bft) 98,43 %
08.11.2022 07:00 10,8 C 10,0 C 7,0 C 90 % 1007,9 hPa 0,0 l/m 0,00 h 0,00 h 10 W/m 21,0 km/h (4 Bft) 96,43 %
08.11.2022 08:00 10,9 C 10,3 C 7,2 C 90 % 1008,1 hPa 0,0 l/m 0,00 h 0,00 h 40 W/m 24,8 km/h (4 Bft) 96,76 %
08.11.2022 09:00 11,5 C 11,3 C 7,8 C 87 % 1008,1 hPa 0,0 l/m 0,00 h 0,00 h 93 W/m 22,4 km/h (4 Bft) 98,84 %
08.11.2022 10:00 12,3 C 12,1 C 8,5 C 84 % 1008,1 hPa 0,0 l/m 0,00 h 0,00 h 107 W/m 17,6 km/h (3 Bft) 95,61 %
08.11.2022 11:00 13,1 C 12,9 C 9,1 C 81 % 1007,6 hPa 0,0 l/m 0,00 h 0,00 h 149 W/m 20,1 km/h (4 Bft) 95,82 %
08.11.2022 12:00 14,2 C 14,3 C 10,1 C 79 % 1007,4 hPa 0,0 l/m 0,07 h 0,13 h 163 W/m 19,4 km/h (3 Bft) 98,29 %
08.11.2022 13:00 15,5 C 15,8 C 11,0 C 77 % 1007,2 hPa 0,0 l/m 0,63 h 0,00 h 193 W/m 14,1 km/h (3 Bft) 95,48 %
08.11.2022 14:00 15,9 C 15,6 C 11,2 C 76 % 1006,6 hPa 0,0 l/m 0,32 h 0,00 h 121 W/m 13,9 km/h (3 Bft) 98,63 %
08.11.2022 15:00 16,5 C 15,8 C 11,5 C 73 % 1006,5 hPa 0,0 l/m 0,00 h 0,02 h 61 W/m 9,8 km/h (2 Bft) 98,06 %
08.11.2022 16:00 16,2 C 15,3 C 11,1 C 75 % 1006,4 hPa 0,0 l/m 0,00 h 0,03 h 17 W/m 14,7 km/h (3 Bft) 94,61 %
08.11.2022 17:00 15,9 C 14,7 C 10,8 C 76 % 1006,1 hPa 0,0 l/m 0,00 h 0,10 h 0 W/m 11,4 km/h (2 Bft) 99,00 %
08.11.2022 18:00 15,4 C 14,4 C 10,6 C 79 % 1006,3 hPa 0,0 l/m 0,00 h 0,00 h 0 W/m 10,8 km/h (2 Bft) 97,71 %
08.11.2022 19:00 15,4 C 14,4 C 10,6 C 79 % 1006,4 hPa 0,0 l/m 0,00 h 0,00 h 0 W/m 12,7 km/h (3 Bft) 95,27 %
08.11.2022 20:00 15,4 C 14,3 C 10,5 C 79 % 1006,4 hPa 0,0 l/m 0,00 h 0,00 h 0 W/m 10,5 km/h (2 Bft) 97,76 %
08.11.2022 21:00 14,9 C 13,9 C 10,0 C 81 % 1006,8 hPa 0,0 l/m 0,00 h 0,00 h 0 W/m 9,5 km/h (2 Bft) 96,51 %
08.11.2022 22:00 14,5 C 13,6 C 9,8 C 82 % 1006,8 hPa 0,0 l/m 0,00 h 0,00 h 0 W/m 11,7 km/h (2 Bft) 96,08 %
08.11.2022 23:00 14,3 C 13,3 C 9,4 C 84 % 1006,9 hPa 0,0 l/m 0,00 h 0,00 h 0 W/m 9,7 km/h (2 Bft) 97,89 %
09.11.2022 00:00 13,9 C 12,9 C 9,4 C 86 % 1007,1 hPa 0,0 l/m 0,00 h 0,00 h 0 W/m 6,2 km/h (2 Bft) 95,09 %
09.11.2022 01:00 13,7 C 12,8 C 9,2 C 86 % 1006,9 hPa 0,0 l/m 0,00 h 0,00 h 0 W/m 9,5 km/h (2 Bft) 98,44 %
09.11.2022 02:00 13,4 C 12,6 C 8,9 C 86 % 1007,1 hPa 0,0 l/m 0,00 h 0,00 h 0 W/m 9,3 km/h (2 Bft) 98,21 %
09.11.2022 03:00 13,6 C 12,8 C 8,9 C 84 % 1007,1 hPa 0,0 l/m 0,00 h 0,00 h 0 W/m 12,7 km/h (3 Bft) 96,02 %
09.11.2022 04:00 13,6 C 12,7 C 9,1 C 84 % 1007,3 hPa 0,0 l/m 0,00 h 0,00 h 0 W/m 13,4 km/h (3 Bft) 97,32 %
09.11.2022 05:00 13,8 C 12,9 C 9,1 C 84 % 1007,7 hPa 0,0 l/m 0,00 h 0,23 h 0 W/m 14,7 km/h (3 Bft) 99,15 %
09.11.2022 06:00 13,5 C 12,6 C 8,8 C 87 % 1007,9 hPa 0,0 l/m 0,00 h 0,00 h 0 W/m 17,5 km/h (3 Bft) 94,85 %
09.11.2022 07:00 13,3 C 12,5 C 8,8 C 87 % 1007,9 hPa 0,0 l/m 0,00 h 0,00 h 4 W/m 16,3 km/h (3 Bft) 99,36 %
09.11.2022 08:00 12,7 C 11,8 C 8,3 C 88 % 1008,5 hPa 0,0 l/m 0,00 h 0,00 h 17 W/m 10,5 km/h (2 Bft) 95,55 %
09.11.2022 09:00 12,9 C 12,9 C 8,7 C 88 % 1008,9 hPa 0,0 l/m 0,33 h 0,00 h 95 W/m 21,0 km/h (4 Bft) 96,26 %
09.11.2022 10:00 14,2 C 15,7 C 9,9 C 83 % 1009,2 hPa 0,0 l/m 0,70 h 0,00 h 182 W/m 28,3 km/h (4 Bft) 98,23 %
09.11.2022 11:00 14,8 C 14,4 C 10,6 C 77 % 1009,7 hPa 0,0 l/m 0,00 h 0,00 h 91 W/m 29,7 km/h (5 Bft) 98,60 %
09.11.2022 12:00 14,8 C 14,6 C 10,5 C 75 % 1009,9 hPa 0,0 l/m 0,07 h 0,00 h 96 W/m 32,2 km/h (5 Bft) 95,24 %
09.11.2022 13:00 15,0 C 14,8 C 10,6 C 74 % 1010,1 hPa 0,0 l/m 0,53 h 0,00 h 188 W/m 26,6 km/h (4 Bft) 98,62 %
09.11.2022 14:00 15,2 C 15,3 C 10,6 C 73 % 1010,2 hPa 0,0 l/m 0,87 h 0,00 h 205 W/m 25,4 km/h (4 Bft) 96,73 %
09.11.2022 15:00 14,5 C 13,8 C 10,0 C 75 % 1010,8 hPa 0,0 l/m 0,07 h 0,00 h 57 W/m 20,8 km/h (4 Bft) 97,43 %
09.11.2022 16:00 13,6 C 12,7 C 9,1 C 80 % 1011,5 hPa 0,0 l/m 0,10 h 0,00 h 19 W/m 13,9 km/h (3 Bft) 98,10 %
09.11.2022 17:00 12,8 C 11,9 C 8,3 C 83 % 1012,2 hPa 0,0 l/m 0,00 h 0,00 h 5 W/m 16,2 km/h (3 Bft) 96,01 %
09.11.2022 18:00 12,5 C 11,7 C 8,2 C 83 % 1013,1 hPa 0,0 l/m 0,00 h 0,00 h 0 W/m 19,4 km/h (3 Bft) 97,03 %
09.11.2022 19:00 12,0 C 11,1 C 7,7 C 84 % 1014,0 hPa 0,0 l/m 0,00 h 0,00 h 0 W/m 15,9 km/h (3 Bft) 99,00 %
09.11.2022 20:00 11,5 C 10,6 C 7,2 C 85 % 1014,8 hPa 0,0 l/m 0,00 h 0,00 h 0 W/m 15,2 km/h (3 Bft) 92,29 %
09.11.2022 21:00 11,1 C 10,3 C 6,8 C 87 % 1015,7 hPa 0,0 l/m 0,00 h 0,00 h 0 W/m 13,1 km/h (3 Bft) 99,00 %
09.11.2022 22:00 10,9 C 10,0 C 6,7 C 88 % 1016,5 hPa 0,0 l/m 0,00 h 0,00 h 0 W/m 14,6 km/h (3 Bft) 98,28 %
09.11.2022 23:00 10,7 C 10,0 C 6,7 C 89 % 1016,9 hPa 0,0 l/m 0,00 h 0,00 h 0 W/m 13,3 km/h (3 Bft) 95,75 %
10.11.2022 00:00 10,5 C 9,5 C 6,4 C 89 % 1017,6 hPa 0,0 l/m 0,00 h 0,00 h 0 W/m 10,8 km/h (2 Bft) 97,35 %
10.11.2022 01:00 10,4 C 9,4 C 6,1 C 90 % 1018,3 hPa 0,0 l/m 0,00 h 0,00 h 0 W/m 13,0 km/h (3 Bft) 96,78 %
10.11.2022 02:00 10,1 C 9,2 C 6,1 C 91 % 1018,8 hPa 0,0 l/m 0,00 h 0,00 h 0 W/m 12,9 km/h (3 Bft) 97,29 %
10.11.2022 03:00 9,9 C 8,9 C 6,0 C 91 % 1019,3 hPa 0,0 l/m 0,00 h 0,00 h 0 W/m 14,9 km/h (3 Bft) 97,22 %
10.11.2022 04:00 9,8 C 8,9 C 6,0 C 92 % 1019,9 hPa 0,0 l/m 0,00 h 0,00 h 0 W/m 17,5 km/h (3 Bft) 97,50 %
10.11.2022 05:00 9,7 C 8,9 C 5,6 C 92 % 1020,7 hPa 0,0 l/m 0,00 h 0,00 h 0 W/m 15,5 km/h (3 Bft) 94,51 %
10.11.2022 06:00 9,5 C 8,5 C 5,6 C 93 % 1021,5 hPa 0,0 l/m 0,00 h 0,00 h 0 W/m 13,9 km/h (3 Bft) 97,52 %
10.11.2022 07:00 9,3 C 8,3 C 5,6 C 93 % 1022,1 hPa 0,0 l/m 0,00 h 0,00 h 6 W/m 15,8 km/h (3 Bft) 97,99 %
10.11.2022 08:00 9,4 C 8,8 C 5,7 C 93 % 1023,2 hPa 0,0 l/m 0,00 h 0,00 h 21 W/m 16,3 km/h (3 Bft) 97,01 %
10.11.2022 09:00 10,3 C 10,3 C 6,7 C 92 % 1024,0 hPa 0,0 l/m 0,40 h 0,00 h 103 W/m 17,9 km/h (3 Bft) 96,74 %
10.11.2022 10:00 12,3 C 16,2 C 7,9 C 87 % 1024,5 hPa 0,0 l/m 0,83 h 0,00 h 225 W/m 20,9 km/h (4 Bft) 99,15 %
10.11.2022 11:00 13,4 C 13,0 C 9,0 C 84 % 1025,0 hPa 0,0 l/m 0,00 h 0,00 h 47 W/m 20,6 km/h (4 Bft) 93,98 %
10.11.2022 12:00 14,2 C 14,0 C 9,7 C 80 % 1025,4 hPa 0,0 l/m 0,10 h 0,00 h 80 W/m 22,7 km/h (4 Bft) 97,44 %
10.11.2022 13:00 15,1 C 15,4 C 10,1 C 75 % 1025,8 hPa 0,0 l/m 1,00 h 0,00 h 336 W/m 22,4 km/h (4 Bft) 97,04 %
10.11.2022 14:00 15,4 C 15,8 C 10,5 C 74 % 1026,1 hPa 0,0 l/m 1,00 h 0,00 h 254 W/m 20,5 km/h (4 Bft) 98,72 %
10.11.2022 15:00 15,2 C 14,4 C 10,2 C 73 % 1026,1 hPa 0,0 l/m 0,27 h 0,00 h 77 W/m 16,8 km/h (3 Bft) 97,08 %
10.11.2022 16:00 14,2 C 13,1 C 9,1 C 76 % 1026,4 hPa 0,0 l/m 0,00 h 0,00 h 22 W/m 9,8 km/h (2 Bft) 96,32 %
10.11.2022 17:00 13,1 C 12,0 C 8,3 C 80 % 1026,9 hPa 0,0 l/m 0,00 h 0,00 h 0 W/m 13,1 km/h (3 Bft) 98,43 %
10.11.2022 18:00 12,4 C 11,7 C 7,8 C 81 % 1027,6 hPa 0,0 l/m 0,00 h 0,00 h 0 W/m 15,7 km/h (3 Bft) 97,35 %
10.11.2022 19:00 11,8 C 10,6 C 7,2 C 82 % 1028,1 hPa 0,0 l/m 0,00 h 0,00 h 0 W/m 9,3 km/h (2 Bft) 96,59 %
10.11.2022 20:00 10,8 C 9,7 C 6,5 C 84 % 1028,3 hPa 0,0 l/m 0,00 h 0,00 h 0 W/m 7,9 km/h (2 Bft) 97,79 %
10.11.2022 21:00 9,9 C 8,8 C 5,8 C 86 % 1028,4 hPa 0,0 l/m 0,00 h 0,00 h 0 W/m 9,4 km/h (2 Bft) 98,27 %
10.11.2022 22:00 9,0 C 7,8 C 4,8 C 89 % 1029,0 hPa 0,0 l/m 0,00 h 0,00 h 0 W/m 4,7 km/h (1 Bft) 95,91 %
10.11.2022 23:00 8,2 C 7,2 C 4,4 C 91 % 1029,2 hPa 0,0 l/m 0,00 h 0,00 h 0 W/m 6,6 km/h (2 Bft) 96,65 %
11.11.2022 00:00 7,8 C 6,9 C 4,1 C 93 % 1029,5 hPa 0,0 l/m 0,00 h 0,00 h 0 W/m 6,2 km/h (2 Bft) 98,33 %
11.11.2022 01:00 7,3 C 6,2 C 3,3 C 93 % 1029,8 hPa 0,0 l/m 0,00 h 0,00 h 0 W/m 2,1 km/h (1 Bft) 96,66 %
11.11.2022 02:00 7,1 C 6,1 C 3,3 C 94 % 1030,0 hPa 0,0 l/m 0,00 h 0,00 h 0 W/m 4,3 km/h (1 Bft) 97,21 %
11.11.2022 03:00 6,8 C 6,1 C 3,3 C 95 % 1030,1 hPa 0,0 l/m 0,00 h 0,00 h 0 W/m 3,3 km/h (1 Bft) 97,88 %
11.11.2022 04:00 6,5 C 5,6 C 2,9 C 95 % 1030,0 hPa 0,0 l/m 0,00 h 0,00 h 0 W/m 3,1 km/h (1 Bft) 96,19 %
11.11.2022 05:00 6,2 C 5,3 C 2,8 C 95 % 1030,1 hPa 0,0 l/m 0,00 h 0,00 h 0 W/m 3,9 km/h (1 Bft) 96,13 %
11.11.2022 06:00 6,1 C 5,6 C 2,8 C 96 % 1030,1 hPa 0,0 l/m 0,00 h 0,00 h 0 W/m 6,5 km/h (2 Bft) 97,79 %
11.11.2022 07:00 6,2 C 5,6 C 2,8 C 96 % 1030,5 hPa 0,0 l/m 0,00 h 0,00 h 6 W/m 7,1 km/h (2 Bft) 97,70 %
11.11.2022 08:00 6,4 C 6,0 C 3,3 C 96 % 1031,0 hPa 0,0 l/m 0,00 h 0,00 h 31 W/m 8,1 km/h (2 Bft) 96,87 %
11.11.2022 09:00 7,4 C 7,8 C 4,6 C 96 % 1031,3 hPa 0,0 l/m 0,33 h 0,00 h 100 W/m 9,5 km/h (2 Bft) 97,49 %
11.11.2022 10:00 9,2 C 11,3 C 6,1 C 93 % 1031,5 hPa 0,0 l/m 0,80 h 0,00 h 170 W/m 11,4 km/h (2 Bft) 98,00 %
11.11.2022 11:00 10,8 C 11,4 C 7,3 C 88 % 1031,7 hPa 0,0 l/m 0,00 h 0,00 h 124 W/m 9,6 km/h (2 Bft) 95,67 %
11.11.2022 12:00 11,6 C 11,8 C 7,7 C 86 % 1031,7 hPa 0,0 l/m 0,00 h 0,00 h 121 W/m 9,8 km/h (2 Bft) 99,04 %
11.11.2022 13:00 12,3 C 12,9 C 8,1 C 84 % 1031,2 hPa 0,0 l/m 0,93 h 0,00 h 233 W/m 10,1 km/h (2 Bft) 95,71 %
11.11.2022 14:00 13,6 C 14,2 C 8,9 C 80 % 1030,9 hPa 0,0 l/m 1,00 h 0,00 h 257 W/m 13,2 km/h (3 Bft) 96,58 %
11.11.2022 15:00 13,6 C 12,8 C 8,7 C 80 % 1030,9 hPa 0,0 l/m 0,23 h 0,00 h 70 W/m 7,8 km/h (2 Bft) 99,36 %
11.11.2022 16:00 12,9 C 11,5 C 7,4 C 81 % 1030,9 hPa 0,0 l/m 0,10 h 0,00 h 23 W/m 1,6 km/h (1 Bft) 94,87 %
11.11.2022 17:00 11,6 C 9,6 C 5,6 C 83 % 1031,0 hPa 0,0 l/m 0,00 h 0,00 h 2 W/m 1,2 km/h (1 Bft) 98,72 %
11.11.2022 18:00 10,5 C 9,3 C 5,7 C 86 % 1030,9 hPa 0,0 l/m 0,00 h 0,00 h 0 W/m 2,1 km/h (1 Bft) 96,53 %
11.11.2022 19:00 10,1 C 9,3 C 5,6 C 87 % 1031,1 hPa 0,0 l/m 0,00 h 0,00 h 0 W/m 3,5 km/h (1 Bft) 96,79 %
11.11.2022 20:00 9,6 C 8,6 C 5,4 C 88 % 1031,3 hPa 0,0 l/m 0,00 h 0,00 h 0 W/m 5,1 km/h (1 Bft) 95,55 %
11.11.2022 21:00 8,9 C 7,8 C 4,8 C 90 % 1031,6 hPa 0,0 l/m 0,00 h 0,00 h 0 W/m 4,4 km/h (1 Bft) 97,98 %
11.11.2022 22:00 8,3 C 7,6 C 4,4 C 91 % 1031,8 hPa 0,0 l/m 0,00 h 0,00 h 0 W/m 6,9 km/h (2 Bft) 97,35 %
11.11.2022 23:00 8,1 C 7,1 C 4,3 C 91 % 1032,0 hPa 0,0 l/m 0,00 h 0,00 h 0 W/m 6,6 km/h (2 Bft) 95,94 %
12.11.2022 00:00 7,8 C 6,7 C 3,9 C 92 % 1032,2 hPa 0,0 l/m 0,00 h 0,00 h 0 W/m 4,5 km/h (1 Bft) 98,94 %
12.11.2022 01:00 7,3 C 6,0 C 3,0 C 93 % 1032,2 hPa 0,0 l/m 0,00 h 0,00 h 0 W/m 1,5 km/h (1 Bft) 94,80 %
12.11.2022 02:00 6,8 C 6,0 C 3,2 C 94 % 1032,3 hPa 0,0 l/m 0,00 h 0,00 h 0 W/m 3,8 km/h (1 Bft) 96,87 %
12.11.2022 03:00 6,7 C 6,1 C 3,3 C 95 % 1032,2 hPa 0,0 l/m 0,00 h 0,00 h 0 W/m 6,4 km/h (2 Bft) 95,83 %
12.11.2022 04:00 6,6 C 5,8 C 3,3 C 95 % 1032,1 hPa 0,0 l/m 0,00 h 0,00 h 0 W/m 8,6 km/h (2 Bft) 96,17 %
12.11.2022 05:00 6,4 C 5,7 C 3,0 C 95 % 1031,8 hPa 0,0 l/m 0,00 h 0,00 h 0 W/m 6,0 km/h (2 Bft) 96,87 %
12.11.2022 06:00 6,1 C 5,4 C 2,8 C 95 % 1031,5 hPa 0,0 l/m 0,00 h 0,00 h 0 W/m 5,7 km/h (1 Bft) 91,58 %
12.11.2022 07:00 5,8 C 5,0 C 2,5 C 95 % 1031,5 hPa 0,0 l/m 0,00 h 0,00 h 5 W/m 5,0 km/h (1 Bft) 97,33 %
12.11.2022 08:00 5,9 C 5,5 C 2,9 C 95 % 1031,9 hPa 0,0 l/m 0,00 h 0,00 h 18 W/m 10,2 km/h (2 Bft) 96,42 %
12.11.2022 09:00 7,0 C 7,2 C 4,0 C 95 % 1032,0 hPa 0,0 l/m 0,37 h 0,00 h 101 W/m 10,3 km/h (2 Bft) 97,43 %
12.11.2022 10:00 9,5 C 13,1 C 5,6 C 89 % 1032,0 hPa 0,0 l/m 0,70 h 0,00 h 203 W/m 10,6 km/h (2 Bft) 97,05 %
12.11.2022 11:00 10,7 C 10,8 C 6,8 C 84 % 1031,9 hPa 0,0 l/m 0,00 h 0,00 h 80 W/m 11,8 km/h (2 Bft) 95,87 %
12.11.2022 12:00 11,8 C 12,3 C 7,6 C 81 % 1031,4 hPa 0,0 l/m 0,07 h 0,00 h 118 W/m 9,2 km/h (2 Bft) 97,39 %
12.11.2022 13:00 13,5 C 14,5 C 8,6 C 78 % 1031,0 hPa 0,0 l/m 1,00 h 0,00 h 309 W/m 9,6 km/h (2 Bft) 98,50 %
12.11.2022 14:00 14,5 C 15,3 C 9,0 C 75 % 1030,7 hPa 0,0 l/m 1,00 h 0,00 h 235 W/m 7,3 km/h (2 Bft) 96,80 %
12.11.2022 15:00 14,4 C 13,3 C 8,5 C 77 % 1030,3 hPa 0,0 l/m 0,27 h 0,00 h 60 W/m 3,9 km/h (1 Bft) 97,36 %
12.11.2022 16:00 13,3 C 11,6 C 7,1 C 80 % 1029,9 hPa 0,0 l/m 0,00 h 0,00 h 15 W/m 1,8 km/h (1 Bft) 96,58 %
12.11.2022 17:00 12,2 C 11,2 C 7,1 C 82 % 1029,6 hPa 0,0 l/m 0,00 h 0,00 h 0 W/m 4,9 km/h (1 Bft) 98,58 %
12.11.2022 18:00 11,8 C 10,8 C 7,0 C 80 % 1029,3 hPa 0,0 l/m 0,00 h 0,00 h 0 W/m 4,7 km/h (1 Bft) 97,07 %
12.11.2022 19:00 11,1 C 9,6 C 5,7 C 81 % 1029,2 hPa 0,0 l/m 0,00 h 0,00 h 0 W/m 0,9 km/h (0 Bft) 96,38 %
12.11.2022 20:00 10,4 C 9,6 C 5,7 C 82 % 1029,0 hPa 0,0 l/m 0,00 h 0,00 h 0 W/m 2,9 km/h (1 Bft) 98,58 %
12.11.2022 21:00 10,4 C 9,6 C 6,0 C 81 % 1028,6 hPa 0,0 l/m 0,00 h 0,00 h 0 W/m 4,3 km/h (1 Bft) 97,22 %
12.11.2022 22:00 10,3 C 9,4 C 6,0 C 82 % 1028,4 hPa 0,0 l/m 0,00 h 0,00 h 0 W/m 6,2 km/h (2 Bft) 95,83 %
12.11.2022 23:00 9,9 C 8,7 C 5,3 C 82 % 1028,1 hPa 0,0 l/m 0,00 h 0,00 h 0 W/m 5,2 km/h (1 Bft) 97,43 %
13.11.2022 00:00 9,1 C 8,1 C 4,8 C 85 % 1027,9 hPa 0,0 l/m 0,00 h 0,00 h 0 W/m 4,2 km/h (1 Bft) 98,39 %
13.11.2022 01:00 8,5 C 7,4 C 4,3 C 86 % 1027,6 hPa 0,0 l/m 0,00 h 0,00 h 0 W/m 1,6 km/h (1 Bft) 96,09 %
13.11.2022 02:00 8,1 C 7,3 C 4,3 C 88 % 1027,1 hPa 0,0 l/m 0,00 h 0,00 h 0 W/m 6,0 km/h (2 Bft) 97,58 %
13.11.2022 03:00 8,0 C 7,0 C 3,9 C 88 % 1026,5 hPa 0,0 l/m 0,00 h 0,00 h 0 W/m 4,8 km/h (1 Bft) 98,86 %
13.11.2022 04:00 7,5 C 6,7 C 3,3 C 89 % 1026,2 hPa 0,0 l/m 0,00 h 0,00 h 0 W/m 3,6 km/h (1 Bft) 95,56 %
13.11.2022 05:00 7,2 C 6,2 C 3,3 C 89 % 1025,9 hPa 0,0 l/m 0,00 h 0,00 h 0 W/m 4,3 km/h (1 Bft) 98,01 %
13.11.2022 06:00 6,9 C 6,1 C 3,2 C 89 % 1025,6 hPa 0,0 l/m 0,00 h 0,00 h 0 W/m 5,1 km/h (1 Bft) 95,11 %
13.11.2022 07:00 6,2 C 4,6 C 1,8 C 89 % 1025,1 hPa 0,0 l/m 0,00 h 0,00 h 6 W/m 0,1 km/h (0 Bft) 97,28 %
13.11.2022 08:00 6,1 C 5,7 C 2,6 C 91 % 1024,7 hPa 0,0 l/m 0,00 h 0,00 h 15 W/m 9,4 km/h (2 Bft) 96,37 %
13.11.2022 09:00 7,4 C 7,4 C 3,8 C 86 % 1024,3 hPa 0,0 l/m 0,37 h 0,00 h 100 W/m 10,1 km/h (2 Bft) 98,15 %
13.11.2022 10:00 10,4 C 15,4 C 5,5 C 77 % 1023,8 hPa 0,0 l/m 0,75 h 0,00 h 241 W/m 9,0 km/h (2 Bft) 98,80 %
13.11.2022 11:00 12,9 C 12,7 C 7,8 C 65 % 1023,5 hPa 0,0 l/m 0,00 h 0,00 h 33 W/m 11,0 km/h (2 Bft) 98,98 %
13.11.2022 12:00 14,0 C 14,1 C 8,6 C 63 % 1022,9 hPa 0,0 l/m 0,03 h 0,00 h 55 W/m 8,0 km/h (2 Bft) 97,20 %
13.11.2022 13:00 15,8 C 17,5 C 9,2 C 56 % 1022,0 hPa 0,0 l/m 1,00 h 0,00 h 348 W/m 5,6 km/h (1 Bft) 97,73 %
13.11.2022 14:00 16,7 C 17,6 C 8,9 C 54 % 1021,1 hPa 0,0 l/m 1,00 h 0,00 h 259 W/m 3,8 km/h (1 Bft) 97,58 %
13.11.2022 15:00 15,9 C 13,2 C 7,4 C 58 % 1020,5 hPa 0,0 l/m 0,30 h 0,00 h 61 W/m 1,3 km/h (1 Bft) 95,59 %
13.11.2022 16:00 13,4 C 10,2 C 5,1 C 65 % 1019,9 hPa 0,0 l/m 0,00 h 0,00 h 12 W/m 0,0 km/h (0 Bft) 98,58 %
13.11.2022 17:00 11,0 C 8,1 C 3,7 C 73 % 1019,5 hPa 0,0 l/m 0,00 h 0,00 h 0 W/m 0,4 km/h (0 Bft) 97,16 %
13.11.2022 18:00 9,0 C 6,6 C 2,6 C 79 % 1019,1 hPa 0,0 l/m 0,00 h 0,00 h 0 W/m 0,0 km/h (0 Bft) 96,02 %
13.11.2022 19:00 7,6 C 5,7 C 2,0 C 84 % 1018,6 hPa 0,0 l/m 0,00 h 0,00 h 0 W/m 0,1 km/h (0 Bft) 98,02 %
13.11.2022 20:00 6,8 C 5,5 C 1,5 C 88 % 1018,3 hPa 0,0 l/m 0,00 h 0,00 h 0 W/m 0,0 km/h (0 Bft) 97,58 %
13.11.2022 21:00 6,3 C 4,8 C 1,1 C 89 % 1017,9 hPa 0,0 l/m 0,00 h 0,00 h 0 W/m 0,0 km/h (0 Bft) 95,46 %
13.11.2022 22:00 5,7 C 4,6 C 1,0 C 91 % 1017,4 hPa 0,0 l/m 0,00 h 0,00 h 0 W/m 0,2 km/h (0 Bft) 95,73 %
13.11.2022 23:00 5,2 C 3,8 C 0,5 C 92 % 1017,1 hPa 0,0 l/m 0,00 h 0,00 h 0 W/m 0,0 km/h (0 Bft) 92,44 %
Min-Datum _ 13.11.22 13.11.22 13.11.22 13.11.22 08.11.22 - - - - 08.11.22 09.11.22
_ Min-Zeit 23:52 23:46 23:50 14:28 17:04 - - - - 15:04 20:36
Minimum _ 4,8 C 3,3 C 0,0 C 52 % 1006,0 hPa - - - - 0,0 km/h (0 Bft) 29,03 %
Max-Datum _ 13.11.22 13.11.22 08.11.22 11.11.22 12.11.22 07.11.22 07.11.22 08.11.22 09.11.22 09.11.22 07.11.22
_ Max-Zeit 14:18 10:28 14:51 06:08 00:48 07:08 15:54 12:32 13:56 12:46 00:04
Maximum _ 16,9 C 20,6 C 11,7 C 96 % 1032,4 hPa 0,2 l/m 0,07 h 0,03 h 406 W/m 51,5 km/h
S-SW (7 Bft)
100,00 %
Durchschnitt _ 11,3 C 10,7 C 6,9 C 85 % 1019,8 hPa #0,2 l/m #17:57 h #31 min. 100 W/m 11,6 km/h (2 Bft) 96,91 %
© 2022 W. Hausmann